sensor_id;sensor_type;location;lat;lon;timestamp;P1;durP1;ratioP1;P2;durP2;ratioP2
7154;SDS011;3619;53.784;10.440;2023-09-12T00:01:59;2.53;;;2.07;;
7154;SDS011;3619;53.784;10.440;2023-09-12T00:04:27;2.13;;;1.93;;
7154;SDS011;3619;53.784;10.440;2023-09-12T00:06:56;4.43;;;1.70;;
7154;SDS011;3619;53.784;10.440;2023-09-12T00:09:23;2.27;;;2.13;;
7154;SDS011;3619;53.784;10.440;2023-09-12T00:11:50;1.43;;;1.33;;
7154;SDS011;3619;53.784;10.440;2023-09-12T00:14:17;2.77;;;1.93;;
7154;SDS011;3619;53.784;10.440;2023-09-12T00:16:44;2.50;;;2.30;;
7154;SDS011;3619;53.784;10.440;2023-09-12T00:19:11;2.67;;;2.37;;
7154;SDS011;3619;53.784;10.440;2023-09-12T00:21:39;3.53;;;2.00;;
7154;SDS011;3619;53.784;10.440;2023-09-12T00:24:07;3.27;;;2.47;;
7154;SDS011;3619;53.784;10.440;2023-09-12T00:26:34;1.67;;;1.57;;
7154;SDS011;3619;53.784;10.440;2023-09-12T00:29:01;4.20;;;2.00;;
7154;SDS011;3619;53.784;10.440;2023-09-12T00:31:27;4.20;;;3.13;;
7154;SDS011;3619;53.784;10.440;2023-09-12T00:33:54;3.37;;;3.07;;
7154;SDS011;3619;53.784;10.440;2023-09-12T00:36:21;2.63;;;2.43;;
7154;SDS011;3619;53.784;10.440;2023-09-12T00:38:48;5.37;;;3.00;;
7154;SDS011;3619;53.784;10.440;2023-09-12T00:41:16;1.87;;;1.77;;
7154;SDS011;3619;53.784;10.440;2023-09-12T00:43:43;2.60;;;2.33;;
7154;SDS011;3619;53.784;10.440;2023-09-12T00:46:09;1.93;;;1.83;;
7154;SDS011;3619;53.784;10.440;2023-09-12T00:48:35;10.03;;;2.40;;
7154;SDS011;3619;53.784;10.440;2023-09-12T00:51:04;3.00;;;2.37;;
7154;SDS011;3619;53.784;10.440;2023-09-12T00:53:31;3.57;;;2.03;;
7154;SDS011;3619;53.784;10.440;2023-09-12T00:55:58;3.30;;;2.37;;
7154;SDS011;3619;53.784;10.440;2023-09-12T00:58:27;2.47;;;2.23;;
7154;SDS011;3619;53.784;10.440;2023-09-12T01:00:54;3.03;;;2.83;;
7154;SDS011;3619;53.784;10.440;2023-09-12T01:03:23;3.83;;;2.93;;
7154;SDS011;3619;53.784;10.440;2023-09-12T01:05:50;1.67;;;1.57;;
7154;SDS011;3619;53.784;10.440;2023-09-12T01:08:17;6.97;;;3.13;;
7154;SDS011;3619;53.784;10.440;2023-09-12T01:10:44;2.47;;;2.37;;
7154;SDS011;3619;53.784;10.440;2023-09-12T01:13:14;3.03;;;2.37;;
7154;SDS011;3619;53.784;10.440;2023-09-12T01:15:42;2.07;;;1.80;;
7154;SDS011;3619;53.784;10.440;2023-09-12T01:18:08;6.80;;;4.00;;
7154;SDS011;3619;53.784;10.440;2023-09-12T01:20:36;3.23;;;2.93;;
7154;SDS011;3619;53.784;10.440;2023-09-12T01:23:11;10.97;;;2.63;;
7154;SDS011;3619;53.784;10.440;2023-09-12T01:26:01;2.93;;;2.60;;
7154;SDS011;3619;53.784;10.440;2023-09-12T01:28:39;3.77;;;2.77;;
7154;SDS011;3619;53.784;10.440;2023-09-12T01:31:08;5.30;;;3.93;;
7154;SDS011;3619;53.784;10.440;2023-09-12T01:33:36;3.20;;;2.40;;
7154;SDS011;3619;53.784;10.440;2023-09-12T01:36:05;2.93;;;2.63;;
7154;SDS011;3619;53.784;10.440;2023-09-12T01:38:32;5.47;;;3.93;;
7154;SDS011;3619;53.784;10.440;2023-09-12T01:40:59;3.47;;;3.17;;
7154;SDS011;3619;53.784;10.440;2023-09-12T01:43:26;2.20;;;1.97;;
7154;SDS011;3619;53.784;10.440;2023-09-12T01:45:55;3.33;;;2.67;;
7154;SDS011;3619;53.784;10.440;2023-09-12T01:48:25;3.87;;;3.10;;
7154;SDS011;3619;53.784;10.440;2023-09-12T01:50:58;3.73;;;2.83;;
7154;SDS011;3619;53.784;10.440;2023-09-12T01:53:25;3.93;;;2.27;;
7154;SDS011;3619;53.784;10.440;2023-09-12T01:55:52;2.63;;;2.43;;
7154;SDS011;3619;53.784;10.440;2023-09-12T01:58:20;4.33;;;2.87;;
7154;SDS011;3619;53.784;10.440;2023-09-12T02:00:47;3.80;;;2.77;;
7154;SDS011;3619;53.784;10.440;2023-09-12T02:03:15;3.83;;;3.07;;
7154;SDS011;3619;53.784;10.440;2023-09-12T02:05:42;4.33;;;2.73;;
7154;SDS011;3619;53.784;10.440;2023-09-12T02:08:10;4.80;;;3.00;;
7154;SDS011;3619;53.784;10.440;2023-09-12T02:10:36;5.13;;;3.00;;
7154;SDS011;3619;53.784;10.440;2023-09-12T02:13:03;6.23;;;3.33;;
7154;SDS011;3619;53.784;10.440;2023-09-12T02:15:30;7.07;;;5.23;;
7154;SDS011;3619;53.784;10.440;2023-09-12T02:17:57;6.53;;;2.90;;
7154;SDS011;3619;53.784;10.440;2023-09-12T02:20:25;6.13;;;3.90;;
7154;SDS011;3619;53.784;10.440;2023-09-12T02:22:51;4.53;;;3.93;;
7154;SDS011;3619;53.784;10.440;2023-09-12T02:25:18;5.53;;;3.77;;
7154;SDS011;3619;53.784;10.440;2023-09-12T02:27:45;3.60;;;3.30;;
7154;SDS011;3619;53.784;10.440;2023-09-12T02:30:12;4.47;;;4.07;;
7154;SDS011;3619;53.784;10.440;2023-09-12T02:32:38;7.13;;;4.17;;
7154;SDS011;3619;53.784;10.440;2023-09-12T02:35:08;5.07;;;3.03;;
7154;SDS011;3619;53.784;10.440;2023-09-12T02:37:36;4.03;;;3.70;;
7154;SDS011;3619;53.784;10.440;2023-09-12T02:40:03;3.73;;;3.43;;
7154;SDS011;3619;53.784;10.440;2023-09-12T02:42:32;3.70;;;2.20;;
7154;SDS011;3619;53.784;10.440;2023-09-12T02:44:59;5.33;;;2.73;;
7154;SDS011;3619;53.784;10.440;2023-09-12T02:47:25;5.90;;;2.93;;
7154;SDS011;3619;53.784;10.440;2023-09-12T02:49:52;4.00;;;3.37;;
7154;SDS011;3619;53.784;10.440;2023-09-12T02:52:19;2.30;;;2.10;;
7154;SDS011;3619;53.784;10.440;2023-09-12T02:54:47;2.57;;;1.67;;
7154;SDS011;3619;53.784;10.440;2023-09-12T02:57:14;4.77;;;2.70;;
7154;SDS011;3619;53.784;10.440;2023-09-12T02:59:40;10.20;;;3.50;;
7154;SDS011;3619;53.784;10.440;2023-09-12T03:02:07;1.53;;;1.43;;
7154;SDS011;3619;53.784;10.440;2023-09-12T03:04:34;4.77;;;3.03;;
7154;SDS011;3619;53.784;10.440;2023-09-12T03:07:01;4.20;;;3.80;;
7154;SDS011;3619;53.784;10.440;2023-09-12T03:09:29;3.53;;;3.23;;
7154;SDS011;3619;53.784;10.440;2023-09-12T03:11:57;7.50;;;3.33;;
7154;SDS011;3619;53.784;10.440;2023-09-12T03:14:24;2.67;;;2.33;;
7154;SDS011;3619;53.784;10.440;2023-09-12T03:16:50;3.20;;;1.77;;
7154;SDS011;3619;53.784;10.440;2023-09-12T03:19:17;4.30;;;3.27;;
7154;SDS011;3619;53.784;10.440;2023-09-12T03:21:44;6.13;;;3.40;;
7154;SDS011;3619;53.784;10.440;2023-09-12T03:24:10;3.70;;;3.17;;
7154;SDS011;3619;53.784;10.440;2023-09-12T03:26:37;7.30;;;3.87;;
7154;SDS011;3619;53.784;10.440;2023-09-12T03:29:05;4.80;;;3.50;;
7154;SDS011;3619;53.784;10.440;2023-09-12T03:31:32;2.43;;;2.23;;
7154;SDS011;3619;53.784;10.440;2023-09-12T03:33:59;9.37;;;3.67;;
7154;SDS011;3619;53.784;10.440;2023-09-12T03:36:26;2.93;;;2.03;;
7154;SDS011;3619;53.784;10.440;2023-09-12T03:38:58;4.83;;;2.77;;
7154;SDS011;3619;53.784;10.440;2023-09-12T03:41:25;3.87;;;3.30;;
7154;SDS011;3619;53.784;10.440;2023-09-12T03:43:52;5.13;;;3.63;;
7154;SDS011;3619;53.784;10.440;2023-09-12T03:46:21;3.50;;;2.93;;
7154;SDS011;3619;53.784;10.440;2023-09-12T03:48:48;5.97;;;2.00;;
7154;SDS011;3619;53.784;10.440;2023-09-12T03:51:15;3.87;;;3.27;;
7154;SDS011;3619;53.784;10.440;2023-09-12T03:53:42;3.63;;;3.30;;
7154;SDS011;3619;53.784;10.440;2023-09-12T03:56:08;3.53;;;3.07;;
7154;SDS011;3619;53.784;10.440;2023-09-12T03:58:37;4.10;;;2.97;;
7154;SDS011;3619;53.784;10.440;2023-09-12T04:01:05;2.20;;;1.43;;
7154;SDS011;3619;53.784;10.440;2023-09-12T04:03:33;3.50;;;2.77;;
7154;SDS011;3619;53.784;10.440;2023-09-12T04:06:00;7.63;;;4.30;;
7154;SDS011;3619;53.784;10.440;2023-09-12T04:08:27;3.43;;;2.73;;
7154;SDS011;3619;53.784;10.440;2023-09-12T04:10:54;2.43;;;2.17;;
7154;SDS011;3619;53.784;10.440;2023-09-12T04:13:20;5.30;;;3.23;;
7154;SDS011;3619;53.784;10.440;2023-09-12T04:15:47;4.30;;;3.10;;
7154;SDS011;3619;53.784;10.440;2023-09-12T04:18:14;5.00;;;3.03;;
7154;SDS011;3619;53.784;10.440;2023-09-12T04:20:42;3.00;;;2.70;;
7154;SDS011;3619;53.784;10.440;2023-09-12T04:23:09;7.43;;;3.87;;
7154;SDS011;3619;53.784;10.440;2023-09-12T04:25:36;6.83;;;2.97;;
7154;SDS011;3619;53.784;10.440;2023-09-12T04:28:03;3.10;;;2.70;;
7154;SDS011;3619;53.784;10.440;2023-09-12T04:30:30;8.90;;;4.63;;
7154;SDS011;3619;53.784;10.440;2023-09-12T04:33:00;3.60;;;2.80;;
7154;SDS011;3619;53.784;10.440;2023-09-12T04:35:28;6.27;;;3.37;;
7154;SDS011;3619;53.784;10.440;2023-09-12T04:37:56;5.63;;;2.87;;
7154;SDS011;3619;53.784;10.440;2023-09-12T04:40:23;4.47;;;2.50;;
7154;SDS011;3619;53.784;10.440;2023-09-12T04:42:51;2.57;;;2.07;;
7154;SDS011;3619;53.784;10.440;2023-09-12T04:45:18;4.23;;;3.83;;
7154;SDS011;3619;53.784;10.440;2023-09-12T04:47:45;9.43;;;3.40;;
7154;SDS011;3619;53.784;10.440;2023-09-12T04:50:12;4.80;;;3.80;;
7154;SDS011;3619;53.784;10.440;2023-09-12T04:52:39;7.63;;;4.00;;
7154;SDS011;3619;53.784;10.440;2023-09-12T04:55:08;7.50;;;3.23;;
7154;SDS011;3619;53.784;10.440;2023-09-12T04:57:36;5.53;;;3.97;;
7154;SDS011;3619;53.784;10.440;2023-09-12T05:00:03;6.60;;;2.90;;
7154;SDS011;3619;53.784;10.440;2023-09-12T05:02:31;5.30;;;3.17;;
7154;SDS011;3619;53.784;10.440;2023-09-12T05:04:58;4.03;;;2.77;;
7154;SDS011;3619;53.784;10.440;2023-09-12T05:07:24;3.13;;;2.80;;
7154;SDS011;3619;53.784;10.440;2023-09-12T05:09:51;7.57;;;3.37;;
7154;SDS011;3619;53.784;10.440;2023-09-12T05:12:19;5.27;;;3.70;;
7154;SDS011;3619;53.784;10.440;2023-09-12T05:14:46;6.77;;;4.93;;
7154;SDS011;3619;53.784;10.440;2023-09-12T05:17:13;5.27;;;3.93;;
7154;SDS011;3619;53.784;10.440;2023-09-12T05:19:40;4.80;;;3.53;;
7154;SDS011;3619;53.784;10.440;2023-09-12T05:22:07;4.10;;;2.73;;
7154;SDS011;3619;53.784;10.440;2023-09-12T05:24:34;3.70;;;2.53;;
7154;SDS011;3619;53.784;10.440;2023-09-12T05:27:01;3.90;;;2.73;;
7154;SDS011;3619;53.784;10.440;2023-09-12T05:29:31;2.70;;;2.37;;
7154;SDS011;3619;53.784;10.440;2023-09-12T05:31:58;4.67;;;4.27;;
7154;SDS011;3619;53.784;10.440;2023-09-12T05:34:25;3.63;;;2.60;;
7154;SDS011;3619;53.784;10.440;2023-09-12T05:36:52;3.10;;;2.83;;
7154;SDS011;3619;53.784;10.440;2023-09-12T05:39:18;7.60;;;2.97;;
7154;SDS011;3619;53.784;10.440;2023-09-12T05:41:45;4.60;;;3.33;;
7154;SDS011;3619;53.784;10.440;2023-09-12T05:44:12;3.63;;;3.27;;
7154;SDS011;3619;53.784;10.440;2023-09-12T05:46:44;3.57;;;2.87;;
7154;SDS011;3619;53.784;10.440;2023-09-12T05:49:11;6.47;;;3.33;;
7154;SDS011;3619;53.784;10.440;2023-09-12T05:51:38;3.67;;;2.90;;
7154;SDS011;3619;53.784;10.440;2023-09-12T05:54:05;9.27;;;3.83;;
7154;SDS011;3619;53.784;10.440;2023-09-12T05:56:34;6.03;;;4.30;;
7154;SDS011;3619;53.784;10.440;2023-09-12T05:59:00;4.53;;;3.33;;
7154;SDS011;3619;53.784;10.440;2023-09-12T06:01:27;6.00;;;3.73;;
7154;SDS011;3619;53.784;10.440;2023-09-12T06:03:56;3.60;;;3.27;;
7154;SDS011;3619;53.784;10.440;2023-09-12T06:06:22;6.87;;;4.30;;
7154;SDS011;3619;53.784;10.440;2023-09-12T06:08:50;4.90;;;4.20;;
7154;SDS011;3619;53.784;10.440;2023-09-12T06:11:18;6.30;;;4.07;;
7154;SDS011;3619;53.784;10.440;2023-09-12T06:13:45;5.23;;;4.53;;
7154;SDS011;3619;53.784;10.440;2023-09-12T06:16:12;3.37;;;3.10;;
7154;SDS011;3619;53.784;10.440;2023-09-12T06:18:38;14.40;;;4.10;;
7154;SDS011;3619;53.784;10.440;2023-09-12T06:21:07;6.13;;;4.27;;
7154;SDS011;3619;53.784;10.440;2023-09-12T06:23:34;9.27;;;3.90;;
7154;SDS011;3619;53.784;10.440;2023-09-12T06:26:00;5.23;;;4.73;;
7154;SDS011;3619;53.784;10.440;2023-09-12T06:28:28;5.93;;;4.13;;
7154;SDS011;3619;53.784;10.440;2023-09-12T06:30:56;4.73;;;3.90;;
7154;SDS011;3619;53.784;10.440;2023-09-12T06:33:23;4.47;;;4.07;;
7154;SDS011;3619;53.784;10.440;2023-09-12T06:35:50;7.83;;;4.50;;
7154;SDS011;3619;53.784;10.440;2023-09-12T06:38:20;5.43;;;4.77;;
7154;SDS011;3619;53.784;10.440;2023-09-12T06:40:47;6.50;;;4.43;;
7154;SDS011;3619;53.784;10.440;2023-09-12T06:43:14;4.97;;;4.47;;
7154;SDS011;3619;53.784;10.440;2023-09-12T06:45:41;4.80;;;4.40;;
7154;SDS011;3619;53.784;10.440;2023-09-12T06:48:08;4.63;;;3.73;;
7154;SDS011;3619;53.784;10.440;2023-09-12T06:50:35;5.77;;;4.90;;
7154;SDS011;3619;53.784;10.440;2023-09-12T06:53:03;4.40;;;4.00;;
7154;SDS011;3619;53.784;10.440;2023-09-12T06:55:32;4.27;;;3.93;;
7154;SDS011;3619;53.784;10.440;2023-09-12T06:58:00;8.13;;;5.67;;
7154;SDS011;3619;53.784;10.440;2023-09-12T07:00:27;6.17;;;5.57;;
7154;SDS011;3619;53.784;10.440;2023-09-12T07:02:53;8.37;;;5.67;;
7154;SDS011;3619;53.784;10.440;2023-09-12T07:05:21;5.07;;;4.63;;
7154;SDS011;3619;53.784;10.440;2023-09-12T07:07:47;5.83;;;4.43;;
7154;SDS011;3619;53.784;10.440;2023-09-12T07:10:14;5.30;;;4.90;;
7154;SDS011;3619;53.784;10.440;2023-09-12T07:12:42;6.07;;;4.73;;
7154;SDS011;3619;53.784;10.440;2023-09-12T07:15:09;4.07;;;3.77;;
7154;SDS011;3619;53.784;10.440;2023-09-12T07:17:37;4.43;;;3.73;;
7154;SDS011;3619;53.784;10.440;2023-09-12T07:20:05;4.70;;;4.33;;
7154;SDS011;3619;53.784;10.440;2023-09-12T07:22:36;4.33;;;3.93;;
7154;SDS011;3619;53.784;10.440;2023-09-12T07:25:04;6.60;;;6.00;;
7154;SDS011;3619;53.784;10.440;2023-09-12T07:27:31;5.37;;;4.97;;
7154;SDS011;3619;53.784;10.440;2023-09-12T07:29:59;9.37;;;7.53;;
7154;SDS011;3619;53.784;10.440;2023-09-12T07:32:27;5.20;;;4.80;;
7154;SDS011;3619;53.784;10.440;2023-09-12T07:34:54;5.23;;;4.80;;
7154;SDS011;3619;53.784;10.440;2023-09-12T07:37:20;10.90;;;5.83;;
7154;SDS011;3619;53.784;10.440;2023-09-12T07:39:47;8.80;;;7.27;;
7154;SDS011;3619;53.784;10.440;2023-09-12T07:42:14;6.47;;;5.83;;
7154;SDS011;3619;53.784;10.440;2023-09-12T07:44:41;7.53;;;6.83;;
7154;SDS011;3619;53.784;10.440;2023-09-12T07:47:09;12.30;;;6.70;;
7154;SDS011;3619;53.784;10.440;2023-09-12T07:49:36;5.23;;;4.93;;
7154;SDS011;3619;53.784;10.440;2023-09-12T07:52:03;6.80;;;5.90;;
7154;SDS011;3619;53.784;10.440;2023-09-12T07:54:31;12.10;;;7.67;;
7154;SDS011;3619;53.784;10.440;2023-09-12T07:56:57;9.80;;;6.97;;
7154;SDS011;3619;53.784;10.440;2023-09-12T07:59:24;6.70;;;5.50;;
7154;SDS011;3619;53.784;10.440;2023-09-12T08:01:51;6.70;;;6.10;;
7154;SDS011;3619;53.784;10.440;2023-09-12T08:04:19;8.80;;;7.10;;
7154;SDS011;3619;53.784;10.440;2023-09-12T08:06:46;8.30;;;7.67;;
7154;SDS011;3619;53.784;10.440;2023-09-12T08:09:13;6.83;;;6.23;;
7154;SDS011;3619;53.784;10.440;2023-09-12T08:11:40;9.30;;;7.50;;
7154;SDS011;3619;53.784;10.440;2023-09-12T08:14:07;6.17;;;5.83;;
7154;SDS011;3619;53.784;10.440;2023-09-12T08:16:34;9.53;;;7.77;;
7154;SDS011;3619;53.784;10.440;2023-09-12T08:19:01;8.03;;;6.93;;
7154;SDS011;3619;53.784;10.440;2023-09-12T08:21:29;14.03;;;7.83;;
7154;SDS011;3619;53.784;10.440;2023-09-12T08:23:56;9.70;;;7.93;;
7154;SDS011;3619;53.784;10.440;2023-09-12T08:26:23;9.07;;;8.13;;
7154;SDS011;3619;53.784;10.440;2023-09-12T08:28:50;9.13;;;7.57;;
7154;SDS011;3619;53.784;10.440;2023-09-12T08:31:17;11.50;;;7.50;;
7154;SDS011;3619;53.784;10.440;2023-09-12T08:33:44;7.23;;;6.63;;
7154;SDS011;3619;53.784;10.440;2023-09-12T08:36:11;8.33;;;6.37;;
7154;SDS011;3619;53.784;10.440;2023-09-12T08:38:39;8.80;;;7.90;;
7154;SDS011;3619;53.784;10.440;2023-09-12T08:41:06;6.93;;;6.33;;
7154;SDS011;3619;53.784;10.440;2023-09-12T08:43:35;8.13;;;7.63;;
7154;SDS011;3619;53.784;10.440;2023-09-12T08:46:02;7.63;;;7.03;;
7154;SDS011;3619;53.784;10.440;2023-09-12T08:48:30;14.00;;;7.07;;
7154;SDS011;3619;53.784;10.440;2023-09-12T08:50:57;9.47;;;7.63;;
7154;SDS011;3619;53.784;10.440;2023-09-12T08:53:26;8.17;;;7.57;;
7154;SDS011;3619;53.784;10.440;2023-09-12T08:55:54;8.30;;;7.63;;
7154;SDS011;3619;53.784;10.440;2023-09-12T08:58:22;9.23;;;8.00;;
7154;SDS011;3619;53.784;10.440;2023-09-12T09:00:49;13.33;;;10.43;;
7154;SDS011;3619;53.784;10.440;2023-09-12T09:03:18;8.67;;;8.03;;
7154;SDS011;3619;53.784;10.440;2023-09-12T09:05:48;11.53;;;8.47;;
7154;SDS011;3619;53.784;10.440;2023-09-12T09:08:17;9.77;;;8.97;;
7154;SDS011;3619;53.784;10.440;2023-09-12T09:10:55;12.67;;;11.50;;
7154;SDS011;3619;53.784;10.440;2023-09-12T09:13:23;8.80;;;8.23;;
7154;SDS011;3619;53.784;10.440;2023-09-12T09:15:57;9.50;;;8.43;;
7154;SDS011;3619;53.784;10.440;2023-09-12T09:18:48;7.60;;;7.10;;
7154;SDS011;3619;53.784;10.440;2023-09-12T09:21:17;9.17;;;7.93;;
7154;SDS011;3619;53.784;10.440;2023-09-12T09:23:44;9.27;;;8.60;;
7154;SDS011;3619;53.784;10.440;2023-09-12T09:26:13;9.83;;;7.77;;
7154;SDS011;3619;53.784;10.440;2023-09-12T09:28:40;8.03;;;7.47;;
7154;SDS011;3619;53.784;10.440;2023-09-12T09:31:10;9.27;;;8.67;;
7154;SDS011;3619;53.784;10.440;2023-09-12T09:33:37;11.67;;;10.87;;
7154;SDS011;3619;53.784;10.440;2023-09-12T09:36:07;12.50;;;11.77;;
7154;SDS011;3619;53.784;10.440;2023-09-12T09:38:34;12.90;;;12.20;;
7154;SDS011;3619;53.784;10.440;2023-09-12T09:41:03;9.67;;;9.17;;
7154;SDS011;3619;53.784;10.440;2023-09-12T09:43:33;18.60;;;17.57;;
7154;SDS011;3619;53.784;10.440;2023-09-12T09:46:00;21.57;;;20.03;;
7154;SDS011;3619;53.784;10.440;2023-09-12T09:48:27;24.60;;;23.23;;
7154;SDS011;3619;53.784;10.440;2023-09-12T09:50:59;30.57;;;28.83;;
7154;SDS011;3619;53.784;10.440;2023-09-12T09:53:27;42.73;;;40.93;;
7154;SDS011;3619;53.784;10.440;2023-09-12T09:56:06;48.03;;;45.87;;
7154;SDS011;3619;53.784;10.440;2023-09-12T09:58:36;45.80;;;43.73;;
7154;SDS011;3619;53.784;10.440;2023-09-12T10:01:03;41.40;;;39.60;;
7154;SDS011;3619;53.784;10.440;2023-09-12T10:03:34;36.73;;;34.87;;
7154;SDS011;3619;53.784;10.440;2023-09-12T10:06:03;36.67;;;35.03;;
7154;SDS011;3619;53.784;10.440;2023-09-12T10:08:32;39.47;;;37.70;;
7154;SDS011;3619;53.784;10.440;2023-09-12T10:11:00;46.50;;;44.47;;
7154;SDS011;3619;53.784;10.440;2023-09-12T10:13:27;43.83;;;41.83;;
7154;SDS011;3619;53.784;10.440;2023-09-12T10:15:59;43.20;;;41.23;;
7154;SDS011;3619;53.784;10.440;2023-09-12T10:18:29;39.97;;;38.03;;
7154;SDS011;3619;53.784;10.440;2023-09-12T10:21:07;38.23;;;36.63;;
7154;SDS011;3619;53.784;10.440;2023-09-12T10:23:39;35.13;;;33.63;;
7154;SDS011;3619;53.784;10.440;2023-09-12T10:26:11;36.03;;;34.43;;
7154;SDS011;3619;53.784;10.440;2023-09-12T10:28:39;29.50;;;28.03;;
7154;SDS011;3619;53.784;10.440;2023-09-12T10:31:11;27.53;;;26.27;;
7154;SDS011;3619;53.784;10.440;2023-09-12T10:33:38;25.90;;;24.77;;
7154;SDS011;3619;53.784;10.440;2023-09-12T10:36:06;32.87;;;31.33;;
7154;SDS011;3619;53.784;10.440;2023-09-12T10:38:36;37.17;;;35.63;;
7154;SDS011;3619;53.784;10.440;2023-09-12T10:41:08;37.93;;;35.97;;
7154;SDS011;3619;53.784;10.440;2023-09-12T10:43:37;44.13;;;42.17;;
7154;SDS011;3619;53.784;10.440;2023-09-12T10:46:06;40.87;;;38.83;;
7154;SDS011;3619;53.784;10.440;2023-09-12T10:48:34;43.73;;;41.87;;
7154;SDS011;3619;53.784;10.440;2023-09-12T10:51:02;49.13;;;46.97;;
7154;SDS011;3619;53.784;10.440;2023-09-12T10:53:30;40.90;;;38.97;;
7154;SDS011;3619;53.784;10.440;2023-09-12T10:55:59;48.40;;;46.37;;
7154;SDS011;3619;53.784;10.440;2023-09-12T10:58:26;51.40;;;49.23;;
7154;SDS011;3619;53.784;10.440;2023-09-12T11:03:51;42.87;;;41.13;;
7154;SDS011;3619;53.784;10.440;2023-09-12T11:06:22;43.27;;;41.37;;
7154;SDS011;3619;53.784;10.440;2023-09-12T11:11:43;38.83;;;37.13;;
7154;SDS011;3619;53.784;10.440;2023-09-12T11:14:12;42.50;;;40.63;;
7154;SDS011;3619;53.784;10.440;2023-09-12T11:16:41;42.27;;;40.27;;
7154;SDS011;3619;53.784;10.440;2023-09-12T11:19:14;46.73;;;44.33;;
7154;SDS011;3619;53.784;10.440;2023-09-12T11:21:42;41.40;;;39.00;;
7154;SDS011;3619;53.784;10.440;2023-09-12T11:24:09;35.83;;;34.27;;
7154;SDS011;3619;53.784;10.440;2023-09-12T11:26:51;35.13;;;33.33;;
7154;SDS011;3619;53.784;10.440;2023-09-12T11:29:20;32.37;;;30.93;;
7154;SDS011;3619;53.784;10.440;2023-09-12T11:31:51;27.87;;;26.17;;
7154;SDS011;3619;53.784;10.440;2023-09-12T11:34:24;23.07;;;21.97;;
7154;SDS011;3619;53.784;10.440;2023-09-12T11:36:54;26.20;;;24.97;;
7154;SDS011;3619;53.784;10.440;2023-09-12T11:39:22;21.73;;;20.70;;
7154;SDS011;3619;53.784;10.440;2023-09-12T11:41:50;21.57;;;20.40;;
7154;SDS011;3619;53.784;10.440;2023-09-12T11:44:18;22.77;;;21.57;;
7154;SDS011;3619;53.784;10.440;2023-09-12T11:46:47;15.03;;;14.23;;
7154;SDS011;3619;53.784;10.440;2023-09-12T12:25:43;9.30;;;8.57;;
7154;SDS011;3619;53.784;10.440;2023-09-12T12:34:28;6.73;;;6.43;;
7154;SDS011;3619;53.784;10.440;2023-09-12T12:35:44;7.47;;;6.97;;
7154;SDS011;3619;53.784;10.440;2023-09-12T13:56:36;3.67;;;3.37;;
7154;SDS011;3619;53.784;10.440;2023-09-12T14:03:03;3.80;;;3.53;;
7154;SDS011;3619;53.784;10.440;2023-09-12T14:06:54;4.40;;;3.77;;
7154;SDS011;3619;53.784;10.440;2023-09-12T14:09:43;3.33;;;3.13;;
7154;SDS011;3619;53.784;10.440;2023-09-12T14:12:13;3.60;;;3.40;;
7154;SDS011;3619;53.784;10.440;2023-09-12T14:17:48;4.93;;;4.53;;
7154;SDS011;3619;53.784;10.440;2023-09-12T14:21:05;5.97;;;4.97;;
7154;SDS011;3619;53.784;10.440;2023-09-12T14:23:39;6.77;;;5.30;;
7154;SDS011;3619;53.784;10.440;2023-09-12T14:26:06;4.77;;;3.97;;
7154;SDS011;3619;53.784;10.440;2023-09-12T14:28:34;5.03;;;4.63;;
7154;SDS011;3619;53.784;10.440;2023-09-12T14:31:01;5.50;;;5.10;;
7154;SDS011;3619;53.784;10.440;2023-09-12T14:33:31;6.63;;;3.87;;
7154;SDS011;3619;53.784;10.440;2023-09-12T14:35:58;3.63;;;3.33;;
7154;SDS011;3619;53.784;10.440;2023-09-12T14:38:26;5.80;;;4.70;;
7154;SDS011;3619;53.784;10.440;2023-09-12T14:40:53;5.83;;;3.87;;
7154;SDS011;3619;53.784;10.440;2023-09-12T14:43:20;5.83;;;4.50;;
7154;SDS011;3619;53.784;10.440;2023-09-12T14:45:53;4.07;;;3.57;;
7154;SDS011;3619;53.784;10.440;2023-09-12T14:48:20;3.73;;;3.43;;
7154;SDS011;3619;53.784;10.440;2023-09-12T14:50:47;3.73;;;3.47;;
7154;SDS011;3619;53.784;10.440;2023-09-12T14:53:14;3.40;;;3.10;;
7154;SDS011;3619;53.784;10.440;2023-09-12T14:55:41;4.47;;;4.07;;
7154;SDS011;3619;53.784;10.440;2023-09-12T14:58:09;4.30;;;3.90;;
7154;SDS011;3619;53.784;10.440;2023-09-12T15:00:39;4.27;;;3.87;;
7154;SDS011;3619;53.784;10.440;2023-09-12T15:03:07;3.97;;;3.60;;
7154;SDS011;3619;53.784;10.440;2023-09-12T15:05:34;3.23;;;3.03;;
7154;SDS011;3619;53.784;10.440;2023-09-12T15:08:00;7.23;;;4.43;;
7154;SDS011;3619;53.784;10.440;2023-09-12T15:10:28;3.50;;;3.30;;
7154;SDS011;3619;53.784;10.440;2023-09-12T15:12:55;5.07;;;4.57;;
7154;SDS011;3619;53.784;10.440;2023-09-12T15:15:21;4.80;;;3.90;;
7154;SDS011;3619;53.784;10.440;2023-09-12T15:17:48;4.67;;;4.27;;
7154;SDS011;3619;53.784;10.440;2023-09-12T15:20:19;5.63;;;3.87;;
7154;SDS011;3619;53.784;10.440;2023-09-12T15:22:46;4.33;;;2.97;;
7154;SDS011;3619;53.784;10.440;2023-09-12T15:25:12;4.40;;;3.90;;
7154;SDS011;3619;53.784;10.440;2023-09-12T15:27:40;2.90;;;2.70;;
7154;SDS011;3619;53.784;10.440;2023-09-12T15:30:07;4.20;;;3.83;;
7154;SDS011;3619;53.784;10.440;2023-09-12T15:32:36;3.83;;;3.47;;
7154;SDS011;3619;53.784;10.440;2023-09-12T15:35:03;2.80;;;2.60;;
7154;SDS011;3619;53.784;10.440;2023-09-12T15:37:32;3.63;;;3.37;;
7154;SDS011;3619;53.784;10.440;2023-09-12T15:39:58;4.43;;;3.83;;
7154;SDS011;3619;53.784;10.440;2023-09-12T15:42:25;4.10;;;3.20;;
7154;SDS011;3619;53.784;10.440;2023-09-12T15:44:53;4.30;;;3.90;;
7154;SDS011;3619;53.784;10.440;2023-09-12T15:47:20;5.43;;;4.93;;
7154;SDS011;3619;53.784;10.440;2023-09-12T15:49:47;5.07;;;4.47;;
7154;SDS011;3619;53.784;10.440;2023-09-12T15:52:17;4.57;;;3.97;;
7154;SDS011;3619;53.784;10.440;2023-09-12T15:54:47;4.00;;;3.80;;
7154;SDS011;3619;53.784;10.440;2023-09-12T15:57:16;4.27;;;3.83;;
7154;SDS011;3619;53.784;10.440;2023-09-12T15:59:43;4.23;;;3.87;;
7154;SDS011;3619;53.784;10.440;2023-09-12T16:02:10;4.23;;;3.63;;
7154;SDS011;3619;53.784;10.440;2023-09-12T16:04:37;4.23;;;3.93;;
7154;SDS011;3619;53.784;10.440;2023-09-12T16:07:07;4.57;;;4.17;;
7154;SDS011;3619;53.784;10.440;2023-09-12T16:09:34;5.07;;;4.57;;
7154;SDS011;3619;53.784;10.440;2023-09-12T16:12:03;5.03;;;4.63;;
7154;SDS011;3619;53.784;10.440;2023-09-12T16:14:32;4.27;;;3.90;;
7154;SDS011;3619;53.784;10.440;2023-09-12T16:16:58;4.20;;;4.00;;
7154;SDS011;3619;53.784;10.440;2023-09-12T16:19:26;6.73;;;5.40;;
7154;SDS011;3619;53.784;10.440;2023-09-12T16:21:55;8.17;;;5.33;;
7154;SDS011;3619;53.784;10.440;2023-09-12T16:24:22;4.90;;;4.60;;
7154;SDS011;3619;53.784;10.440;2023-09-12T16:26:48;4.37;;;4.17;;
7154;SDS011;3619;53.784;10.440;2023-09-12T16:29:19;5.17;;;4.77;;
7154;SDS011;3619;53.784;10.440;2023-09-12T16:31:46;4.33;;;3.93;;
7154;SDS011;3619;53.784;10.440;2023-09-12T16:34:13;7.10;;;5.03;;
7154;SDS011;3619;53.784;10.440;2023-09-12T16:36:40;5.57;;;5.07;;
7154;SDS011;3619;53.784;10.440;2023-09-12T16:39:06;4.27;;;3.97;;
7154;SDS011;3619;53.784;10.440;2023-09-12T16:41:38;6.00;;;5.60;;
7154;SDS011;3619;53.784;10.440;2023-09-12T16:44:41;5.43;;;4.43;;
7154;SDS011;3619;53.784;10.440;2023-09-12T16:47:26;4.90;;;4.50;;
7154;SDS011;3619;53.784;10.440;2023-09-12T16:50:11;5.13;;;4.53;;
7154;SDS011;3619;53.784;10.440;2023-09-12T16:53:08;5.20;;;4.57;;
7154;SDS011;3619;53.784;10.440;2023-09-12T16:56:05;4.13;;;3.80;;
7154;SDS011;3619;53.784;10.440;2023-09-12T16:58:48;3.77;;;3.40;;
7154;SDS011;3619;53.784;10.440;2023-09-12T17:01:24;4.20;;;3.80;;
7154;SDS011;3619;53.784;10.440;2023-09-12T17:03:57;4.57;;;4.17;;
7154;SDS011;3619;53.784;10.440;2023-09-12T17:06:50;4.93;;;4.53;;
7154;SDS011;3619;53.784;10.440;2023-09-12T17:09:37;5.57;;;4.13;;
7154;SDS011;3619;53.784;10.440;2023-09-12T17:12:08;5.30;;;4.90;;
7154;SDS011;3619;53.784;10.440;2023-09-12T17:14:39;4.57;;;3.87;;
7154;SDS011;3619;53.784;10.440;2023-09-12T17:17:07;3.17;;;2.97;;
7154;SDS011;3619;53.784;10.440;2023-09-12T17:19:34;4.43;;;4.10;;
7154;SDS011;3619;53.784;10.440;2023-09-12T17:22:01;5.43;;;4.77;;